Time;durP1;ratioP1;P1;durP2;ratioP2;P2;SDS_P1;SDS_P2;PMS_P1;PMS_P2;Temp;Humidity;BMP_temperature;BMP_pressure;BME280_temperature;BME280_humidity;BME280_pressure;Samples;Min_cycle;Max_cycle;Signal;HPM_P1;HPM_P2
2023/10/09 00:02:54;;;;;;;10.48;3.28;;;;;;;21.61;45.97;100348.00;5135118;27;20054;-83
2023/10/09 00:05:28;;;;;;;11.13;3.22;;;;;;;21.65;45.79;100342.84;5135076;27;20404;-82
2023/10/09 00:07:57;;;;;;;9.32;3.15;;;;;;;21.42;46.31;100333.53;5132637;27;20023;-83
2023/10/09 00:10:25;;;;;;;11.07;3.20;;;;;;;21.51;46.52;100341.88;5141933;27;20114;-83
2023/10/09 00:12:50;;;;;;;8.88;3.70;;;;;;;21.45;46.63;100350.06;5140940;27;20029;-84
2023/10/09 00:15:17;;;;;;;9.48;3.08;;;;;;;21.53;46.73;100348.63;5133788;27;20122;-82
2023/10/09 00:17:46;;;;;;;8.38;3.20;;;;;;;21.12;47.48;100331.84;5138702;27;20034;-83
2023/10/09 00:20:20;;;;;;;12.68;3.03;;;;;;;20.98;47.95;100328.97;5137407;27;20030;-83
2023/10/09 00:22:48;;;;;;;11.77;3.75;;;;;;;21.14;47.73;100352.16;5144502;27;20075;-83
2023/10/09 00:25:22;;;;;;;11.55;3.40;;;;;;;20.52;49.76;100308.34;5134531;27;20392;-84
2023/10/09 00:27:48;;;;;;;11.80;3.97;;;;;;;20.70;48.87;100339.47;5154814;27;20058;-83
2023/10/09 00:30:29;;;;;;;12.55;3.53;;;;;;;20.97;48.09;100349.06;5136852;27;20508;-84
2023/10/09 00:38:23;;;;;;;12.55;3.90;;;;;;;20.73;48.66;100344.31;5152224;27;20077;-83
2023/10/09 00:43:52;;;;;;;15.00;3.88;;;;;;;20.47;49.79;100363.38;5114570;27;20041;-84
2023/10/09 00:48:47;;;;;;;16.75;3.90;;;;;;;20.06;51.40;100363.53;5154092;27;20562;-83
2023/10/09 00:51:18;;;;;;;13.95;3.55;;;;;;;20.09;51.73;100385.72;5144733;27;20086;-85
2023/10/09 00:53:45;;;;;;;11.32;4.13;;;;;;;20.25;51.77;100392.72;5156087;27;20030;-84
2023/10/09 00:56:19;;;;;;;15.38;3.75;;;;;;;19.82;52.13;100378.72;5144407;27;20152;-84
2023/10/09 00:58:46;;;;;;;8.23;3.10;;;;;;;19.60;53.61;100373.56;5162312;27;20056;-83
2023/10/09 01:01:16;;;;;;;12.15;3.60;;;;;;;19.24;54.74;100385.16;5144486;27;20016;-84
2023/10/09 01:03:43;;;;;;;13.45;2.95;;;;;;;19.28;54.71;100423.31;5146708;27;20023;-84
2023/10/09 01:11:21;;;;;;;16.45;3.03;;;;;;;18.24;62.63;100425.84;5148136;27;20395;-85
2023/10/09 01:16:17;;;;;;;18.30;2.22;;;;;;;17.58;61.10;100456.63;5136958;27;20495;-84
2023/10/09 01:19:12;;;;;;;17.33;2.00;;;;;;;17.20;60.06;100449.50;5150878;27;20035;-86
2023/10/09 01:21:39;;;;;;;11.65;1.67;;;;;;;17.18;59.69;100474.03;5125877;27;20284;-83
2023/10/09 01:24:08;;;;;;;9.85;1.73;;;;;;;16.87;60.02;100462.06;5142831;27;20522;-84
2023/10/09 01:26:44;;;;;;;5.68;1.52;;;;;;;16.91;59.52;100483.94;5134130;27;20526;-82
2023/10/09 01:29:14;;;;;;;11.63;1.50;;;;;;;16.66;59.07;100510.25;5150950;27;20060;-82
2023/10/09 01:31:54;;;;;;;8.43;1.20;;;;;;;16.28;59.04;100521.81;5132759;27;20027;-82
2023/10/09 01:34:38;;;;;;;8.60;1.40;;;;;;;16.16;58.50;100504.94;5133670;27;20076;-82
2023/10/09 01:37:30;;;;;;;7.50;1.20;;;;;;;16.26;57.80;100526.63;5132265;27;20060;-82
2023/10/09 01:39:58;;;;;;;5.97;1.25;;;;;;;16.39;56.70;100542.44;5138308;27;20034;-82
2023/10/09 01:44:58;;;;;;;6.03;1.15;;;;;;;15.97;56.20;100542.81;5151594;27;20034;-82
2023/10/09 01:47:25;;;;;;;5.03;2.10;;;;;;;15.88;56.39;100562.31;5152183;27;20027;-82
2023/10/09 01:49:53;;;;;;;6.50;1.02;;;;;;;15.62;56.44;100538.41;5153288;27;20021;-82
2023/10/09 01:52:20;;;;;;;10.05;1.10;;;;;;;15.50;56.55;100524.22;5148428;27;20412;-82
2023/10/09 01:54:48;;;;;;;5.82;0.95;;;;;;;15.82;56.17;100577.53;5145518;27;20108;-82
2023/10/09 01:57:15;;;;;;;4.68;1.77;;;;;;;15.56;55.92;100560.06;5131309;27;20023;-82
2023/10/09 01:59:47;;;;;;;5.47;1.00;;;;;;;15.36;56.38;100577.41;5132464;27;20027;-83
2023/10/09 02:04:51;;;;;;;7.65;1.00;;;;;;;15.19;56.52;100561.22;5138256;27;20164;-83
2023/10/09 02:07:22;;;;;;;8.25;1.20;;;;;;;15.16;56.79;100590.44;5132018;27;20031;-82
2023/10/09 02:09:47;;;;;;;4.82;1.35;;;;;;;15.13;56.90;100594.41;5144132;27;20046;-84
2023/10/09 02:12:13;;;;;;;4.93;1.20;;;;;;;14.97;56.81;100576.34;5133797;27;20030;-84
2023/10/09 02:14:41;;;;;;;11.25;1.52;;;;;;;14.80;57.23;100578.94;5133881;27;20038;-84
2023/10/09 02:17:17;;;;;;;6.75;1.20;;;;;;;14.65;58.18;100595.50;5131008;27;20019;-83
2023/10/09 02:19:48;;;;;;;4.45;1.27;;;;;;;14.66;57.98;100594.44;5132689;27;20104;-84
2023/10/09 02:22:14;;;;;;;2.88;0.73;;;;;;;14.57;58.10;100598.53;5130034;27;20046;-82
2023/10/09 02:24:59;;;;;;;5.22;0.98;;;;;;;14.60;57.80;100603.44;5131232;27;20068;-82
2023/10/09 02:27:46;;;;;;;2.53;0.90;;;;;;;14.35;57.89;100588.31;5131859;27;20015;-82
2023/10/09 02:30:27;;;;;;;6.28;1.20;;;;;;;14.73;57.55;100632.75;5134340;27;20036;-81
2023/10/09 02:32:59;;;;;;;5.55;0.95;;;;;;;14.60;58.08;100644.50;5134021;27;20581;-82
2023/10/09 02:35:38;;;;;;;3.30;0.55;;;;;;;14.53;57.44;100626.84;5129820;27;20031;-85
2023/10/09 02:38:10;;;;;;;8.15;0.95;;;;;;;14.36;57.48;100622.13;5132383;27;20393;-82
2023/10/09 02:43:22;;;;;;;4.07;0.90;;;;;;;14.45;56.67;100649.47;5131501;27;20534;-82
2023/10/09 02:45:50;;;;;;;5.88;1.33;;;;;;;14.51;56.71;100671.88;5131145;27;20023;-83
2023/10/09 02:48:20;;;;;;;3.55;0.88;;;;;;;14.33;56.31;100641.38;5129973;27;20042;-83
2023/10/09 02:50:46;;;;;;;2.55;0.90;;;;;;;14.10;56.44;100650.19;5130301;27;20023;-82
2023/10/09 02:53:18;;;;;;;1.67;0.75;;;;;;;13.72;56.43;100610.28;5141953;27;20022;-81
2023/10/09 02:55:53;;;;;;;4.97;1.10;;;;;;;13.98;55.90;100638.59;5134108;27;20035;-82
2023/10/09 02:58:21;;;;;;;4.65;0.88;;;;;;;13.93;55.46;100649.97;5129763;27;20027;-83
2023/10/09 03:00:48;;;;;;;2.25;0.77;;;;;;;14.11;55.20;100672.44;5145317;27;20396;-82
2023/10/09 03:03:18;;;;;;;1.98;0.70;;;;;;;14.19;53.82;100685.53;5135685;27;20042;-83
2023/10/09 03:05:44;;;;;;;3.50;0.90;;;;;;;13.96;53.25;100659.47;5140035;27;20653;-82
2023/10/09 03:08:12;;;;;;;2.35;0.90;;;;;;;14.08;53.14;100684.47;5151972;27;20498;-82
2023/10/09 03:10:38;;;;;;;3.60;1.13;;;;;;;13.94;52.77;100667.72;5133852;27;20114;-83
2023/10/09 03:13:05;;;;;;;5.07;1.10;;;;;;;13.83;52.39;100682.72;5131043;27;20052;-83
2023/10/09 03:15:35;;;;;;;2.47;0.88;;;;;;;13.86;52.05;100687.59;5130926;27;20058;-82
2023/10/09 03:18:04;;;;;;;2.67;1.00;;;;;;;13.97;51.69;100704.78;5130171;27;20034;-81
2023/10/09 03:20:30;;;;;;;3.55;1.00;;;;;;;13.79;52.20;100720.91;5135047;27;20042;-83
2023/10/09 03:23:01;;;;;;;4.43;1.10;;;;;;;13.95;50.98;100722.97;5148294;27;20104;-83
2023/10/09 03:25:26;;;;;;;4.25;1.08;;;;;;;13.55;51.04;100707.38;5130942;27;20023;-84
2023/10/09 03:27:56;;;;;;;3.30;1.20;;;;;;;13.83;50.54;100748.91;5130470;28;20026;-82
2023/10/09 03:30:24;;;;;;;5.13;1.40;;;;;;;13.83;50.26;100730.13;5133810;27;20102;-85
2023/10/09 03:32:51;;;;;;;3.33;1.30;;;;;;;13.80;50.23;100749.34;5132126;27;20031;-82
2023/10/09 03:35:24;;;;;;;4.75;1.20;;;;;;;13.66;50.02;100741.44;5133370;27;20027;-83
2023/10/09 03:38:19;;;;;;;3.38;1.20;;;;;;;13.72;49.32;100766.53;5133813;27;20034;-83
2023/10/09 03:40:47;;;;;;;4.18;1.45;;;;;;;13.76;48.62;100761.56;5150196;27;20030;-83
2023/10/09 03:43:16;;;;;;;2.35;0.98;;;;;;;13.44;48.95;100740.22;5132863;27;20019;-83
2023/10/09 03:45:52;;;;;;;3.15;1.25;;;;;;;13.75;48.66;100760.75;5134947;27;20088;-83
2023/10/09 03:48:31;;;;;;;7.25;1.27;;;;;;;13.70;48.27;100765.13;5112761;28;20067;-83
2023/10/09 03:51:12;;;;;;;4.63;1.50;;;;;;;13.77;47.96;100765.88;5149181;27;20027;-82
2023/10/09 03:53:41;;;;;;;3.60;1.17;;;;;;;13.92;48.42;100797.69;5135741;27;20032;-83
2023/10/09 03:56:15;;;;;;;4.63;1.10;;;;;;;13.74;48.24;100798.50;5135770;27;20026;-82
2023/10/09 03:58:45;;;;;;;3.78;1.02;;;;;;;13.75;47.97;100802.81;5134764;27;20023;-82
2023/10/09 04:04:00;;;;;;;2.40;0.98;;;;;;;13.60;47.97;100781.72;5126702;27;20031;-82
2023/10/09 04:06:30;;;;;;;4.75;1.17;;;;;;;13.66;47.96;100789.69;5134009;27;20031;-82
2023/10/09 04:08:58;;;;;;;2.85;0.90;;;;;;;13.82;47.76;100808.94;5133018;27;20443;-85
2023/10/09 04:11:24;;;;;;;2.35;0.90;;;;;;;13.65;47.67;100816.75;5149122;27;20030;-82
2023/10/09 04:13:52;;;;;;;3.17;0.95;;;;;;;13.53;47.75;100811.28;5134149;27;20027;-84
2023/10/09 04:18:59;;;;;;;4.40;1.40;;;;;;;13.51;47.67;100807.19;5134197;27;20032;-82
2023/10/09 04:21:35;;;;;;;3.15;1.10;;;;;;;13.55;47.28;100816.41;5148287;27;20062;-82
2023/10/09 04:26:45;;;;;;;4.50;1.13;;;;;;;13.43;47.29;100801.03;5133844;27;20038;-81
2023/10/09 04:29:26;;;;;;;3.13;1.13;;;;;;;13.23;47.61;100797.69;5132300;27;20031;-82
2023/10/09 04:31:53;;;;;;;4.63;1.10;;;;;;;13.39;47.24;100793.69;5132220;27;20062;-83
2023/10/09 04:34:22;;;;;;;2.33;0.83;;;;;;;13.69;47.42;100820.63;5138748;27;20114;-83
2023/10/09 04:36:56;;;;;;;3.05;1.00;;;;;;;13.55;46.95;100819.91;5151785;27;20494;-82
2023/10/09 04:47:36;;;;;;;3.33;1.13;;;;;;;13.51;47.16;100840.16;5140265;27;20098;-83
2023/10/09 04:50:11;;;;;;;3.67;1.52;;;;;;;13.59;46.82;100837.19;5151995;27;20043;-82
2023/10/09 05:02:56;;;;;;;5.30;1.30;;;;;;;13.81;46.36;100880.50;5129741;27;20038;-82
2023/10/09 05:08:29;;;;;;;3.60;1.00;;;;;;;13.74;46.64;100897.69;5132838;27;20023;-82
2023/10/09 05:16:26;;;;;;;4.28;1.17;;;;;;;13.54;46.86;100895.16;5132696;27;20058;-82
2023/10/09 05:18:56;;;;;;;3.42;1.23;;;;;;;13.45;47.02;100878.53;5131340;27;20023;-81
2023/10/09 05:21:36;;;;;;;2.80;1.20;;;;;;;13.39;47.33;100890.13;5131114;27;20035;-83
2023/10/09 05:29:19;;;;;;;3.30;1.30;;;;;;;13.63;46.84;100891.19;5133017;27;20036;-86
2023/10/09 05:34:33;;;;;;;1.98;0.98;;;;;;;13.47;47.47;100889.84;5132760;27;20027;-82
2023/10/09 05:37:10;;;;;;;2.72;1.00;;;;;;;13.25;47.99;100868.75;5142979;27;20038;-83
2023/10/09 05:39:42;;;;;;;2.83;0.98;;;;;;;13.46;47.73;100864.09;5132646;27;20080;-83
2023/10/09 05:42:17;;;;;;;4.00;1.20;;;;;;;13.80;47.47;100892.25;5144316;27;20035;-82
2023/10/09 05:45:30;;;;;;;2.53;0.90;;;;;;;13.78;46.75;100907.75;5141283;27;20079;-82
2023/10/09 05:47:53;;;;;;;3.45;1.05;;;;;;;13.48;47.55;100894.16;5110937;27;20040;-81
2023/10/09 05:55:48;;;;;;;3.13;1.00;;;;;;;13.86;48.40;100923.56;5146856;27;20035;-83
2023/10/09 06:03:48;;;;;;;2.92;0.98;;;;;;;14.15;47.36;100941.88;5146617;27;20034;-83
2023/10/09 06:11:41;;;;;;;2.67;1.08;;;;;;;13.94;46.33;100951.97;5132957;27;20026;-81
2023/10/09 06:19:07;;;;;;;2.55;1.20;;;;;;;14.15;45.78;100972.19;5138588;27;20035;-82
2023/10/09 06:24:18;;;;;;;4.35;1.35;;;;;;;14.28;46.21;100976.59;5131460;27;20054;-82
2023/10/09 06:29:38;;;;;;;4.55;2.53;;;;;;;14.40;46.22;100993.63;5131424;27;20027;-82
2023/10/09 06:34:51;;;;;;;25.55;13.73;;;;;;;14.58;45.79;100997.41;5130468;27;20027;-83
2023/10/09 06:47:59;;;;;;;2.70;1.10;;;;;;;15.35;44.73;101023.78;5140999;27;20082;-83
2023/10/09 06:50:25;;;;;;;9.88;6.72;;;;;;;15.42;43.88;101019.13;5147659;27;20031;-83
2023/10/09 06:52:57;;;;;;;3.50;1.30;;;;;;;15.87;42.87;101007.97;5146548;27;20125;-83
2023/10/09 06:55:32;;;;;;;5.93;1.90;;;;;;;15.92;42.57;101007.28;5135987;27;20114;-80
2023/10/09 06:58:01;;;;;;;4.55;1.70;;;;;;;16.10;42.93;101000.97;5129503;27;20114;-81
2023/10/09 07:03:11;;;;;;;18.10;12.13;;;;;;;15.83;43.13;101020.22;5136692;27;20096;-82
2023/10/09 07:06:00;;;;;;;4.20;1.25;;;;;;;15.65;43.59;101016.53;5144334;27;20026;-83
2023/10/09 07:08:32;;;;;;;4.93;1.30;;;;;;;15.58;43.73;101026.56;5136588;27;20480;-82
2023/10/09 07:13:52;;;;;;;1.63;0.93;;;;;;;16.02;43.22;101040.63;5139009;27;20418;-84
2023/10/09 07:16:38;;;;;;;17.00;11.35;;;;;;;16.18;42.79;101022.16;5137196;27;20035;-82
2023/10/09 07:19:25;;;;;;;8.00;2.97;;;;;;;16.97;41.93;101030.69;5123878;27;20031;-81
2023/10/09 07:21:54;;;;;;;4.30;1.00;;;;;;;16.72;41.31;101039.03;5134990;27;20031;-85
2023/10/09 07:24:37;;;;;;;5.85;1.25;;;;;;;16.37;42.92;101039.84;5151658;27;20027;-81
2023/10/09 07:27:13;;;;;;;2.75;0.98;;;;;;;16.10;43.15;101054.78;5137272;27;20038;-83
2023/10/09 07:29:47;;;;;;;3.17;1.27;;;;;;;15.91;43.03;101041.41;5143175;27;20156;-84
2023/10/09 07:32:22;;;;;;;6.20;1.40;;;;;;;15.93;43.38;101049.25;5133024;27;20038;-81
2023/10/09 07:34:57;;;;;;;5.05;1.05;;;;;;;15.96;43.36;101049.63;5134373;27;20038;-82
2023/10/09 07:37:30;;;;;;;3.88;1.02;;;;;;;16.04;43.73;101060.06;5133530;27;20034;-82
2023/10/09 07:40:06;;;;;;;2.70;1.00;;;;;;;15.75;43.99;101058.22;5132939;27;20115;-83
2023/10/09 07:42:43;;;;;;;4.60;1.60;;;;;;;15.90;44.00;101061.31;5132757;27;20484;-83
2023/10/09 07:46:09;;;;;;;3.40;1.25;;;;;;;16.01;43.20;101057.81;5147860;27;20057;-83
2023/10/09 07:48:04;;;;;;;;;;;;;;;16.06;42.94;101070.59;5137373;27;20054;-83
2023/10/09 07:51:11;;;;;;;9.48;1.85;;;;;;;15.84;43.77;101062.22;5133033;27;20963;-80
2023/10/09 07:53:32;;;;;;;19.67;6.72;;;;;;;16.04;43.48;101041.22;5131750;27;20035;-83
2023/10/09 07:56:06;;;;;;;19.88;6.68;;;;;;;15.89;43.54;101054.28;5132856;27;20046;-83
2023/10/09 07:58:33;;;;;;;8.38;3.13;;;;;;;16.14;43.06;101053.28;5136933;27;20117;-83
2023/10/09 08:01:08;;;;;;;10.13;3.13;;;;;;;15.78;43.50;101055.09;5132932;27;20027;-82
2023/10/09 08:03:37;;;;;;;7.25;2.40;;;;;;;16.01;43.30;101062.38;5132412;27;20027;-82
2023/10/09 08:06:38;;;;;;;13.73;3.63;;;;;;;15.97;43.19;101035.13;5133022;27;20358;-82
2023/10/09 08:09:38;;;;;;;3.80;1.60;;;;;;;16.03;43.95;101026.13;5135027;27;20071;-83
2023/10/09 08:12:13;;;;;;;10.30;3.13;;;;;;;16.00;43.14;101023.91;5130860;27;20130;-83
2023/10/09 08:14:43;;;;;;;6.30;1.50;;;;;;;16.20;43.27;101033.50;5132638;27;20027;-84
2023/10/09 08:17:21;;;;;;;5.32;1.30;;;;;;;16.39;42.88;101037.75;5134271;27;20532;-85
2023/10/09 08:19:53;;;;;;;;;;;;;;;16.81;42.72;101064.56;5112875;28;20028;-85
2023/10/09 08:24:57;;;;;;;5.10;1.60;;;;;;;17.23;40.72;101040.13;5135537;27;20550;-84
2023/10/09 08:33:39;;;;;;;5.90;1.58;;;;;;;17.03;41.65;101050.50;5127972;27;20027;-83
2023/10/09 08:35:51;;;;;;;3.53;1.13;;;;;;;16.86;41.30;101023.47;5126342;27;20031;-83
2023/10/09 08:38:24;;;;;;;6.45;1.48;;;;;;;17.62;41.21;101045.72;5158640;27;20031;-86
2023/10/09 08:40:58;;;;;;;5.32;1.40;;;;;;;17.74;40.79;101031.38;5159825;27;20023;-88
2023/10/09 08:43:23;;;;;;;6.28;1.60;;;;;;;18.14;40.69;101039.34;5152875;27;20076;-84
2023/10/09 08:46:04;;;;;;;4.75;1.60;;;;;;;18.14;39.87;101047.44;5150320;27;20039;-83
2023/10/09 08:48:30;;;;;;;3.33;1.70;;;;;;;17.67;41.10;101047.69;5156905;27;20091;-84
2023/10/09 08:50:56;;;;;;;5.30;1.60;;;;;;;17.27;41.12;101051.25;5138267;27;20037;-85
2023/10/09 08:53:23;;;;;;;4.43;1.63;;;;;;;17.11;42.01;101055.50;5131858;27;20023;-79
2023/10/09 08:55:51;;;;;;;4.50;1.55;;;;;;;17.13;42.22;101039.91;5132940;27;20500;-79
2023/10/09 08:58:24;;;;;;;3.05;1.70;;;;;;;17.39;41.49;101041.25;5137009;27;20039;-83
2023/10/09 09:00:51;;;;;;;5.65;1.85;;;;;;;17.39;41.41;101013.47;5133390;27;20119;-81
2023/10/09 09:03:21;;;;;;;5.30;1.70;;;;;;;17.47;41.85;101026.56;5132988;27;20027;-84
2023/10/09 09:05:49;;;;;;;4.22;1.67;;;;;;;17.56;41.75;101041.28;5145607;27;20079;-83
2023/10/09 09:08:25;;;;;;;7.28;1.50;;;;;;;17.40;41.63;101040.19;5147748;27;20444;-82
2023/10/09 09:11:00;;;;;;;5.90;1.60;;;;;;;17.55;42.39;101015.41;5132994;27;20031;-84
2023/10/09 09:13:31;;;;;;;5.55;1.70;;;;;;;17.36;42.22;101030.94;5131951;27;20031;-81
2023/10/09 09:15:58;;;;;;;5.68;1.88;;;;;;;17.50;41.47;101007.19;5134858;27;20031;-82
2023/10/09 09:18:26;;;;;;;5.63;1.52;;;;;;;17.48;41.16;101009.31;5133672;27;20054;-84
2023/10/09 09:20:56;;;;;;;5.20;1.60;;;;;;;18.42;39.96;101006.03;5140433;27;20509;-84
2023/10/09 09:23:23;;;;;;;7.22;1.80;;;;;;;18.58;39.83;100998.16;5132114;27;20539;-83
2023/10/09 09:25:58;;;;;;;5.13;1.50;;;;;;;17.82;40.87;101014.78;5131285;27;20106;-83
2023/10/09 09:28:26;;;;;;;5.78;1.60;;;;;;;18.03;41.97;101007.88;5131403;27;20031;-83
2023/10/09 09:30:52;;;;;;;;;;;;;;;18.65;39.33;101018.53;5152638;27;20083;-84
2023/10/09 09:33:43;;;;;;;5.32;1.92;;;;;;;18.77;38.81;100975.16;5151130;27;20006;-84
2023/10/09 09:36:11;;;;;;;3.83;1.60;;;;;;;19.31;39.03;101004.22;5151574;27;20559;-85
2023/10/09 09:39:19;;;;;;;5.30;1.70;;;;;;;18.78;39.99;100992.22;5129834;27;20039;-86
2023/10/09 09:41:29;;;;;;;4.32;1.50;;;;;;;18.93;38.57;100978.09;5140355;27;20031;-87
2023/10/09 09:44:00;;;;;;;5.55;1.70;;;;;;;19.07;38.14;100984.75;5153014;27;20075;-84
2023/10/09 09:46:34;;;;;;;3.47;1.30;;;;;;;19.53;37.54;100993.31;5145448;27;20031;-86
2023/10/09 09:49:16;;;;;;;6.45;1.67;;;;;;;19.97;36.46;100974.25;5123868;27;20064;-84
2023/10/09 09:51:42;;;;;;;5.30;1.38;;;;;;;19.74;36.58;100991.66;5152240;27;20391;-81
2023/10/09 09:54:09;;;;;;;5.13;1.40;;;;;;;19.74;36.72;100952.97;5151288;27;20030;-83
2023/10/09 09:56:38;;;;;;;6.18;1.30;;;;;;;20.16;36.78;100965.72;5132047;27;20020;-84
2023/10/09 09:59:06;;;;;;;3.83;1.20;;;;;;;19.59;36.38;100911.13;5131210;27;20035;-82
2023/10/09 10:01:37;;;;;;;3.90;1.58;;;;;;;20.25;35.97;100950.63;5130729;27;20106;-82
2023/10/09 10:04:13;;;;;;;5.68;1.48;;;;;;;20.62;35.68;100953.28;5131105;27;20039;-84
2023/10/09 10:06:47;;;;;;;3.90;1.65;;;;;;;20.79;35.07;100966.63;5128604;27;20020;-85
2023/10/09 10:09:38;;;;;;;5.45;1.40;;;;;;;20.14;35.58;100959.75;5148884;27;20082;-84
2023/10/09 10:12:10;;;;;;;7.43;1.60;;;;;;;20.40;35.47;100953.41;5146497;27;20434;-83
2023/10/09 10:17:58;;;;;;;3.38;1.30;;;;;;;20.75;35.52;100951.16;5137292;27;20429;-83
2023/10/09 10:20:25;;;;;;;5.72;1.95;;;;;;;20.41;35.51;100919.00;5136626;27;20027;-82
2023/10/09 10:23:12;;;;;;;5.20;1.50;;;;;;;20.26;35.45;100919.72;5130438;27;20027;-83
2023/10/09 10:25:41;;;;;;;5.17;1.70;;;;;;;20.87;34.94;100905.66;5130725;27;20531;-84
2023/10/09 10:28:38;;;;;;;5.93;1.85;;;;;;;21.00;34.43;100904.31;5131559;27;20023;-84
2023/10/09 10:31:07;;;;;;;3.75;1.77;;;;;;;20.93;34.02;100901.88;5134116;27;20024;-85
2023/10/09 10:33:54;;;;;;;3.53;1.42;;;;;;;20.89;34.96;100905.41;5132110;27;20126;-84
2023/10/09 10:36:23;;;;;;;4.78;1.65;;;;;;;21.19;34.24;100897.31;5140126;27;20030;-83
2023/10/09 10:39:19;;;;;;;4.45;1.70;;;;;;;20.96;33.93;100900.50;5139782;27;20058;-84
2023/10/09 10:42:00;;;;;;;6.15;1.70;;;;;;;20.48;34.84;100858.06;5132211;27;20511;-85
2023/10/09 10:44:42;;;;;;;4.82;1.42;;;;;;;20.91;34.30;100863.38;5132111;27;20035;-83
2023/10/09 10:47:25;;;;;;;6.07;1.73;;;;;;;21.38;34.05;100877.78;5132329;27;20026;-83
2023/10/09 10:49:52;;;;;;;7.47;2.72;;;;;;;21.59;34.30;100882.16;5144245;27;20035;-85
2023/10/09 10:52:41;;;;;;;10.17;4.67;;;;;;;21.85;33.38;100893.78;5140665;27;20113;-84
2023/10/09 10:55:48;;;;;;;5.75;1.63;;;;;;;21.71;33.17;100884.59;5133833;28;20982;-84
2023/10/09 10:58:10;;;;;;;5.78;1.70;;;;;;;22.13;32.66;100863.56;5152790;27;20027;-84
2023/10/09 11:06:15;;;;;;;4.40;1.70;;;;;;;21.71;34.36;100862.06;5137552;27;20087;-84
2023/10/09 11:08:54;;;;;;;6.75;1.60;;;;;;;21.83;33.91;100855.25;5144010;27;20049;-84
2023/10/09 11:11:20;;;;;;;5.15;1.60;;;;;;;22.44;32.53;100848.00;5133756;27;20114;-84
2023/10/09 11:13:58;;;;;;;6.22;1.80;;;;;;;22.04;32.99;100850.56;5153460;27;20537;-85
2023/10/09 11:16:47;;;;;;;3.90;1.40;;;;;;;21.97;32.71;100813.94;5144112;27;20075;-84
2023/10/09 11:19:39;;;;;;;4.90;1.50;;;;;;;22.29;33.46;100851.59;5144173;27;20027;-86
2023/10/09 11:24:35;;;;;;;3.65;1.50;;;;;;;21.60;33.64;100818.66;5150237;27;20482;-86
2023/10/09 11:27:06;;;;;;;5.53;1.55;;;;;;;21.38;33.98;100842.53;5148575;27;20027;-85
2023/10/09 11:32:25;;;;;;;6.93;1.90;;;;;;;21.52;33.91;100816.50;5142018;27;20031;-84
2023/10/09 11:35:11;;;;;;;4.78;1.67;;;;;;;21.96;33.16;100826.69;5139405;27;20023;-84
2023/10/09 11:37:42;;;;;;;6.07;1.95;;;;;;;21.97;33.32;100825.59;5132186;27;20043;-84
2023/10/09 11:43:51;;;;;;;5.38;1.63;;;;;;;22.00;33.93;100784.31;5116598;27;20130;-86
2023/10/09 11:46:36;;;;;;;5.55;2.03;;;;;;;22.00;33.96;100788.94;5131169;27;20476;-85
2023/10/09 11:49:25;;;;;;;7.32;2.00;;;;;;;22.42;32.38;100790.41;5131453;27;20061;-85
2023/10/09 11:54:35;;;;;;;6.00;2.00;;;;;;;22.98;32.16;100770.16;5124704;28;20038;-84
2023/10/09 11:57:01;;;;;;;4.78;1.98;;;;;;;23.06;31.90;100777.75;5134214;27;20106;-85
2023/10/09 11:59:28;;;;;;;5.75;2.00;;;;;;;22.79;31.77;100784.44;5134226;27;20073;-85
2023/10/09 12:01:54;;;;;;;4.53;1.88;;;;;;;23.17;32.21;100762.97;5133870;27;20031;-85
2023/10/09 12:04:20;;;;;;;4.50;2.03;;;;;;;23.30;30.82;100771.56;5143603;27;20119;-85
2023/10/09 12:06:48;;;;;;;7.38;1.92;;;;;;;22.90;31.11;100757.19;5135515;27;20598;-85
2023/10/09 12:09:23;;;;;;;8.48;2.10;;;;;;;22.96;32.10;100756.03;5147180;27;20023;-86
2023/10/09 12:11:52;;;;;;;5.32;1.50;;;;;;;22.88;31.53;100743.84;5146510;27;20698;-84
2023/10/09 12:14:23;;;;;;;5.35;1.90;;;;;;;23.16;31.35;100745.00;5137187;27;20110;-84
2023/10/09 12:16:49;;;;;;;5.20;1.90;;;;;;;23.39;31.11;100742.59;5132946;27;20031;-85
2023/10/09 12:19:15;;;;;;;6.20;2.00;;;;;;;23.30;31.26;100723.38;5132618;27;20488;-84
2023/10/09 12:21:42;;;;;;;5.82;2.30;;;;;;;23.19;31.50;100727.28;5138859;27;20031;-84
2023/10/09 12:24:11;;;;;;;6.47;1.92;;;;;;;23.38;31.65;100717.31;5138537;27;20167;-84
2023/10/09 12:26:39;;;;;;;6.78;1.92;;;;;;;23.82;30.88;100720.91;5134591;27;20480;-85
2023/10/09 12:29:10;;;;;;;5.80;2.10;;;;;;;23.99;30.23;100721.22;5139654;27;20027;-85
2023/10/09 12:31:36;;;;;;;5.55;1.50;;;;;;;23.94;30.29;100736.81;5138328;27;20030;-85
2023/10/09 12:34:02;;;;;;;4.57;1.65;;;;;;;23.31;31.06;100707.84;5135220;27;20063;-84
2023/10/09 12:36:28;;;;;;;8.40;1.67;;;;;;;23.33;31.25;100728.22;5132671;27;20026;-84
2023/10/09 12:38:58;;;;;;;5.10;1.77;;;;;;;24.16;30.06;100715.28;5135910;27;20023;-84
2023/10/09 12:41:28;;;;;;;4.95;1.70;;;;;;;24.09;29.97;100705.84;5137756;27;20030;-84
2023/10/09 12:43:54;;;;;;;4.50;1.75;;;;;;;24.06;29.83;100699.88;5136525;27;20095;-87
2023/10/09 12:46:25;;;;;;;6.38;2.22;;;;;;;23.49;30.09;100698.94;5137770;27;20050;-85
2023/10/09 12:48:54;;;;;;;7.22;2.05;;;;;;;23.85;30.12;100704.78;5131353;27;20096;-86
2023/10/09 12:51:20;;;;;;;5.10;1.83;;;;;;;24.48;29.64;100700.09;5134756;27;20031;-85
2023/10/09 12:53:48;;;;;;;4.80;2.13;;;;;;;24.43;30.56;100676.44;5140662;27;20486;-85
2023/10/09 12:56:18;;;;;;;6.57;1.75;;;;;;;23.98;29.70;100684.19;5135494;27;20054;-85
2023/10/09 12:58:52;;;;;;;4.85;1.42;;;;;;;23.46;30.36;100673.13;5132339;27;20042;-86
2023/10/09 13:01:19;;;;;;;4.55;1.77;;;;;;;23.95;30.04;100684.78;5133109;27;20415;-86
2023/10/09 13:03:49;;;;;;;5.97;1.50;;;;;;;24.52;29.46;100681.22;5140370;27;20046;-85
2023/10/09 13:06:15;;;;;;;3.70;1.50;;;;;;;24.38;28.34;100654.72;5152617;27;20087;-86
2023/10/09 13:08:42;;;;;;;5.13;1.40;;;;;;;24.32;28.49;100672.25;5139416;27;20031;-86
2023/10/09 13:11:16;;;;;;;7.85;2.03;;;;;;;25.15;27.67;100666.22;5134322;27;20442;-86
2023/10/09 13:13:43;;;;;;;5.30;1.67;;;;;;;24.98;27.91;100675.00;5128925;27;20093;-85
2023/10/09 13:16:14;;;;;;;9.40;2.08;;;;;;;26.00;27.39;100663.97;5126486;27;20061;-86
2023/10/09 13:18:49;;;;;;;4.57;1.60;;;;;;;26.03;26.96;100642.31;5131706;27;20029;-86
2023/10/09 13:21:22;;;;;;;6.78;1.88;;;;;;;25.47;27.29;100646.22;5133167;27;20106;-85
2023/10/09 13:23:54;;;;;;;5.22;1.80;;;;;;;25.56;26.74;100638.97;5135853;27;20050;-85
2023/10/09 13:26:25;;;;;;;4.18;1.63;;;;;;;25.43;27.71;100650.69;5133104;27;20038;-85
2023/10/09 13:28:54;;;;;;;3.22;1.45;;;;;;;25.96;26.76;100639.19;5140617;27;20122;-87
2023/10/09 13:31:21;;;;;;;5.53;2.03;;;;;;;27.41;24.71;100637.16;5149858;27;20030;-86
2023/10/09 13:33:47;;;;;;;5.17;2.00;;;;;;;27.35;24.77;100630.22;5133698;27;20098;-86
2023/10/09 13:36:26;;;;;;;4.90;1.45;;;;;;;27.71;25.00;100634.66;5132792;27;20050;-86
2023/10/09 13:38:55;;;;;;;3.58;1.45;;;;;;;27.59;24.57;100618.81;5132434;27;20035;-86
2023/10/09 13:41:21;;;;;;;4.45;1.33;;;;;;;27.84;23.97;100631.72;5130441;27;20031;-87
2023/10/09 13:43:51;;;;;;;7.13;2.28;;;;;;;27.79;24.05;100631.91;5137018;27;20031;-86
2023/10/09 13:46:17;;;;;;;3.80;1.33;;;;;;;28.60;22.90;100613.97;5139265;27;20403;-87
2023/10/09 13:48:45;;;;;;;5.47;1.77;;;;;;;29.02;22.46;100635.31;5130989;27;20067;-83
2023/10/09 13:51:17;;;;;;;4.45;1.75;;;;;;;28.60;22.47;100605.72;5130908;27;20031;-83
2023/10/09 13:53:46;;;;;;;5.93;1.60;;;;;;;28.58;22.57;100618.16;5134577;27;20050;-83
2023/10/09 13:56:18;;;;;;;5.07;1.77;;;;;;;30.36;21.33;100615.34;5132018;27;20517;-82
2023/10/09 13:58:45;;;;;;;5.03;1.70;;;;;;;29.30;21.76;100619.22;5147225;27;20510;-84
2023/10/09 14:01:10;;;;;;;5.93;1.97;;;;;;;30.89;20.77;100623.03;5142731;27;20034;-83
2023/10/09 14:03:38;;;;;;;5.22;2.10;;;;;;;30.71;20.69;100617.72;5141558;27;20030;-83
2023/10/09 14:06:12;;;;;;;6.57;1.70;;;;;;;31.01;19.46;100601.00;5134289;27;20027;-83
2023/10/09 14:08:42;;;;;;;5.65;1.63;;;;;;;31.73;19.77;100614.25;5134314;27;20096;-83
2023/10/09 14:11:13;;;;;;;5.03;1.58;;;;;;;31.07;20.47;100591.38;5131732;27;20070;-84
2023/10/09 14:13:42;;;;;;;6.53;1.70;;;;;;;33.16;17.96;100590.50;5134936;27;20522;-83